• Join FlightAware (Why Join?)
  • Login
  • US Flag 
02:55AM EDT


 

Airport Tracker/Info


-or-


 

Live Flight TrackerFlight Track Log ✈ BVN7560 ✈ 27-Feb-2012 ✈ KGCK - KICT

Flight Track Log - Related Links

Times and Time Zones

All times are in EST time to prevent confusion due to time zone crossing. See the BVN7560 flight status page for this flight to view local times or setup timezone preferences in your user account.

Time Position Orientation Groundspeed Altitude Reporting Facility
EST Latitude Longitude Course Direction KTS MPH feet Rate Location/Type
09:09PM 37.9222 -100.7219 96° East 161 185 3,100  Level Kansas City Center
09:10PM 37.9197 -100.6928 82° East 112 129 3,800 720 Climbing Kansas City Center
09:11PM 37.9236 -100.6589 90° East 94 108 4,600 720 Climbing Kansas City Center
09:12PM 37.9236 -100.6192 97° East 107 123 5,300 720 Climbing Kansas City Center
09:13PM 37.9194 -100.5767 98° East 107 123 6,100 660 Climbing Kansas City Center
09:14PM 37.9153 -100.5369 98° East 107 123 6,700 600 Climbing Kansas City Center
09:15PM 37.9108 -100.4972 97° East 119 137 7,400 660 Climbing Kansas City Center
09:16PM 37.9067 -100.4547 92° East 119 137 8,100 720 Climbing Kansas City Center
09:17PM 37.9050 -100.4044 96° East 124 143 8,900 660 Climbing Kansas City Center
09:18PM 37.9011 -100.3594 94° East 124 143 9,500 540 Climbing Kansas City Center
09:19PM 37.8989 -100.3172 92° East 129 148 10,000 540 Climbing Kansas City Center
09:20PM 37.8972 -100.2669 97° East 135 155 10,600 480 Climbing Kansas City Center
09:21PM 37.8917 -100.2114 97° East 141 162 11,000 180 Climbing Kansas City Center
09:22PM 37.8861 -100.1503 94° East 159 183 11,000  Level Kansas City Center
09:23PM 37.8825 -100.0922 96° East 172 198 11,000  Level Kansas City Center
09:24PM 37.8772 -100.0314 96° East 172 198 11,000  Level Kansas City Center
09:25PM 37.8717 -99.9678 94° East 177 204 11,000  Level Kansas City Center
09:26PM 37.8683 -99.9044 95° East 177 204 11,000  Level Kansas City Center
09:27PM 37.8644 -99.8514 99° East 177 204 11,000  Level Kansas City Center
09:28PM 37.8567 -99.7903 94° East 177 204 11,000  Level Kansas City Center
09:29PM 37.8533 -99.7244 94° East 177 204 11,000  Level Kansas City Center
09:30PM 37.8497 -99.6636 95° East 172 198 11,000  Level Kansas City Center
09:31PM 37.8458 -99.6108 97° East 172 198 11,000  Level Kansas City Center
09:32PM 37.8400 -99.5472 97° East 172 198 11,000  Level Kansas City Center
09:33PM 37.8342 -99.4889 96° East 167 192 11,000  Level Kansas City Center
09:34PM 37.8286 -99.4256 98° East 162 186 11,000  Level Kansas City Center
09:35PM 37.8225 -99.3672 94° East 162 186 11,000  Level Kansas City Center
09:36PM 37.8189 -99.3039 97° East 162 186 11,000  Level Kansas City Center
09:37PM 37.8131 -99.2431 95° East 162 186 11,000  Level Kansas City Center
09:38PM 37.8089 -99.1850 95° East 162 186 11,000  Level Kansas City Center
09:39PM 37.8050 -99.1269 97° East 162 186 11,000  Level Kansas City Center
09:40PM 37.7992 -99.0633 95° East 162 186 11,000  Level Kansas City Center
09:41PM 37.7950 -99.0053 99° East 162 186 11,000  Level Kansas City Center
09:42PM 37.7869 -98.9444 95° East 162 186 11,000  Level Kansas City Center
09:43PM 37.7828 -98.8839 95° East 162 186 11,000  Level Kansas City Center
09:44PM 37.7789 -98.8231 97° East 162 186 11,000  Level Kansas City Center
09:45PM 37.7728 -98.7622 98° East 162 186 11,100  Climbing Kansas City Center
09:46PM 37.7664 -98.7017 95° East 162 186 11,100  Level Kansas City Center
09:47PM 37.7622 -98.6436 95° East 162 186 11,100  Level Kansas City Center
09:48PM 37.7581 -98.5828 98° East 162 186 11,100  Level Kansas City Center
09:49PM 37.7517 -98.5222 101° East 162 186 11,100 -180 Level Kansas City Center
09:50PM 37.7467 -98.4903 99° East 177 204 10,900 -480 Descending Kansas City Center
09:51PM 37.7367 -98.4083 97° East 190 219 10,300 -540 Descending Kansas City Center
09:52PM 37.7306 -98.3425 98° East 194 223 9,800 -600 Descending Kansas City Center
09:53PM 37.7225 -98.2711 95° East 197 227 9,200 -600 Descending Kansas City Center
09:54PM 37.7183 -98.2053 95° East 189 217 8,700 -540 Descending Kansas City Center
09:55PM 37.7139 -98.1419 100° East 181 208 8,200 -660 Descending Kansas City Center
09:56PM 37.7053 -98.0786 95° East 178 205 7,400 -660 Descending Kansas City Center
09:57PM 37.7011 -98.0128 95° East 183 211 6,900 -540 Descending Kansas City Center
09:58PM 37.6967 -97.9522 96° East 180 207 6,400 -600 Descending Kansas City Center
09:59PM 37.6919 -97.8917 98° East 177 204 5,800 -540 Descending Kansas City Center
10:00PM 37.6856 -97.8308 99° East 173 199 5,400 -540 Descending Kansas City Center
10:01PM 37.6786 -97.7728 93° East 165 190 4,800 -600 Descending Kansas City Center
10:02PM 37.6761 -97.7150 99° East 168 193 4,300 -480 Descending Kansas City Center
10:03PM 37.6692 -97.6597 98° East 161 185 3,900 -480 Descending Kansas City Center
10:04PM 37.6625 -97.6017 91° East 154 177 3,400 -540 Descending Kansas City Center
10:05PM 37.6617 -97.5517 88° East 146 168 2,900 -480 Descending Kansas City Center
10:06PM 37.6631 -97.4967 81° East 144 166 2,400 -420 Descending Kansas City Center
10:07PM 37.6681 -97.4550 81° East 127 146 2,100 -360 Descending Kansas City Center